Ina Theresa — V7UJ2 — position and weather

sailwx.info

Track history (hours):
 
Tides and Currents Weather Stations Pressure Air Temp Water Temp Dewpoint Dewpoint Depression Visibility Wind Speed Wind Dir Waves Ship Positions

Ina Theresa

Last reported at 2018-Apr-24 12:46 UTC. Time now 2018-Apr-24 18:37 UTC.
Position N 31°19' E 121°45'.

Length 122 m; draft 8.8 m.

Type: Ship. MMSI: 538004548.

Date/timePositionNaut miles runAvg speedWind from/ knotsBaromVisibWave heightAir tempDewpointWater temp
2018-Apr-24 12:46N 31°19' E 121°45'2 8.2
2018-Apr-24 12:28N 31°18' E 121°48'12 6.8
2018-Apr-24 10:43N 31°15' E 122°01'2 6.6
2018-Apr-24 10:27N 31°14' E 122°03'9 7.3
2018-Apr-24 09:13N 31°10' E 122°12'2 6.4
2018-Apr-24 08:58N 31°09' E 122°14'4 7.5
2018-Apr-24 08:27N 31°07' E 122°17'3 6.6
2018-Apr-24 07:58N 31°06' E 122°21'4 6.0
2018-Apr-24 07:18N 31°06' E 122°26'  
2018-Apr-20 12:18N 32°10' E 124°21'515.9
2018-Apr-20 12:00N 32°12' E 124°26'815.2
2018-Apr-20 11:30N 32°17' E 124°33'1014.4
2018-Apr-20 10:48N 32°26' E 124°39'2615.1
2018-Apr-20 09:05N 32°41' E 125°03'115.3
2018-Apr-20 09:00N 32°42' E 125°05'714.8
2018-Apr-20 08:30N 32°48' E 125°10'8414.8
2018-Apr-20 02:48N 33°39' E 126°31'515.4
2018-Apr-20 02:30N 33°40' E 126°36'2715.1
2018-Apr-20 00:43N 33°49' E 127°07'314.6
2018-Apr-20 00:30N 33°50' E 127°10'714.3
2018-Apr-19 23:59N 33°52' E 127°19'55 3.4
2018-Apr-19 07:44N 34°36' E 127°58'416.0
2018-Apr-19 07:31N 34°33' E 127°60'815.8
2018-Apr-19 07:01N 34°27' E 128°06'2 4.9
2018-Apr-19 06:30N 34°25' E 128°08'2 2.0
2018-Apr-19 05:18N 34°25' E 128°05'1 1.9
2018-Apr-19 05:00N 34°25' E 128°04'2 4.3
2018-Apr-19 04:30N 34°26' E 128°02'2011.8
2018-Apr-19 02:50N 34°31' E 128°25'3213.9
2018-Apr-19 00:33N 34°47' E 128°58'114.6
2018-Apr-19 00:30N 34°48' E 128°59'714.9
2018-Apr-19 00:00N 34°52' E 129°06'1215.2
2018-Apr-18 23:12N 35°02' E 129°15'715.3
2018-Apr-18 22:46N 35°08' E 129°19'515.0
2018-Apr-18 22:26N 35°13' E 129°21'15 2.5
2018-Apr-18 16:30N 35°27' E 129°22'3 5.1
2018-Apr-18 15:52N 35°26' E 129°25'614.6
2018-Apr-18 15:29N 35°20' E 129°25'816.8
2018-Apr-18 15:00N 35°13' E 129°20'916.7
2018-Apr-18 14:29N 35°07' E 129°13'612.5
2018-Apr-18 14:00N 35°05' E 129°06'1 2.3
2018-Apr-18 13:30N 35°06' E 129°06'0 0.0
2018-Apr-18 13:00N 35°06' E 129°06'0 0.0
2018-Apr-18 12:30N 35°06' E 129°06'0 0.0
2018-Apr-18 12:00N 35°06' E 129°06'0 0.0
2018-Apr-18 11:30N 35°06' E 129°06'0 0.0
2018-Apr-18 11:00N 35°06' E 129°06'0 0.0
2018-Apr-18 10:30N 35°06' E 129°06'0 0.0
2018-Apr-18 10:00N 35°06' E 129°06'0 0.0
2018-Apr-18 09:21N 35°06' E 129°06'0 0.0
2018-Apr-18 09:00N 35°06' E 129°06'0 0.0
2018-Apr-18 08:30N 35°06' E 129°06'0 0.0
2018-Apr-18 08:00N 35°06' E 129°06'0 0.0
2018-Apr-18 07:30N 35°06' E 129°06'0 0.0
2018-Apr-18 07:00N 35°06' E 129°06'0 0.0
2018-Apr-18 06:30N 35°06' E 129°06'0 0.0
2018-Apr-18 06:00N 35°06' E 129°06'0 0.0
2018-Apr-18 05:30N 35°06' E 129°06'0 0.0
2018-Apr-18 05:00N 35°06' E 129°06'0 0.0
2018-Apr-18 04:30N 35°06' E 129°06'0 0.0
2018-Apr-18 03:54N 35°06' E 129°06'0 0.0
2018-Apr-18 03:27N 35°06' E 129°06'0 0.0
2018-Apr-18 02:57N 35°06' E 129°06'0 0.0
2018-Apr-18 02:30N 35°06' E 129°06'0 0.0
2018-Apr-18 02:00N 35°06' E 129°06'0 0.0
2018-Apr-18 01:30N 35°06' E 129°06'0 0.0
2018-Apr-18 00:57N 35°06' E 129°06'0 0.0
2018-Apr-18 00:30N 35°06' E 129°06'0 0.0
2018-Apr-18 00:00N 35°06' E 129°06'0 0.0
2018-Apr-17 23:30N 35°06' E 129°06'0 0.0
2018-Apr-17 23:00N 35°06' E 129°06'0 0.0
2018-Apr-17 22:30N 35°06' E 129°06'0 0.0
2018-Apr-17 22:00N 35°06' E 129°06'1 1.1
2018-Apr-17 21:30N 35°06' E 129°06'5 9.3
2018-Apr-17 21:00N 35°05' E 129°11'  
2018-Apr-15 09:21N 40°45' E 139°53'613.7
2018-Apr-15 08:56N 40°50' E 139°57'3014.0
2018-Apr-15 06:50N 41°16' E 140°16'412.2
2018-Apr-15 06:30N 41°18' E 140°20'611.4
2018-Apr-15 05:59N 41°22' E 140°26'611.4
2018-Apr-15 05:30N 41°25' E 140°32'612.5
2018-Apr-15 05:00N 41°30' E 140°38'713.7
2018-Apr-15 04:31N 41°34' E 140°45'612.9
2018-Apr-15 04:00N 41°37' E 140°52'611.3
2018-Apr-15 03:30N 41°40' E 140°59'713.6
2018-Apr-15 03:00N 41°43' E 141°07'714.0
2018-Apr-15 02:30N 41°48' E 141°14'  
Track history (hours):
 
Tides and Currents Weather Stations Pressure Air Temp Water Temp Dewpoint Dewpoint Depression Visibility Wind Speed Wind Dir Waves Ship Positions

Ina Theresa

Last reported at 2018-Apr-24 12:46 UTC. Time now 2018-Apr-24 18:37 UTC.
Position N 31°19' E 121°45'.

Length 122 m; draft 8.8 m.

Type: Ship. MMSI: 538004548.

Date/timePositionNaut miles runAvg speedWind from/ knotsBaromVisibWave heightAir tempDewpointWater temp
2018-Apr-24 12:46N 31°19' E 121°45'2 8.2
2018-Apr-24 12:28N 31°18' E 121°48'12 6.8
2018-Apr-24 10:43N 31°15' E 122°01'2 6.6
2018-Apr-24 10:27N 31°14' E 122°03'9 7.3
2018-Apr-24 09:13N 31°10' E 122°12'2 6.4
2018-Apr-24 08:58N 31°09' E 122°14'4 7.5
2018-Apr-24 08:27N 31°07' E 122°17'3 6.6
2018-Apr-24 07:58N 31°06' E 122°21'4 6.0
2018-Apr-24 07:18N 31°06' E 122°26'  
2018-Apr-20 12:18N 32°10' E 124°21'515.9
2018-Apr-20 12:00N 32°12' E 124°26'815.2
2018-Apr-20 11:30N 32°17' E 124°33'1014.4
2018-Apr-20 10:48N 32°26' E 124°39'2615.1
2018-Apr-20 09:05N 32°41' E 125°03'115.3
2018-Apr-20 09:00N 32°42' E 125°05'714.8
2018-Apr-20 08:30N 32°48' E 125°10'8414.8
2018-Apr-20 02:48N 33°39' E 126°31'515.4
2018-Apr-20 02:30N 33°40' E 126°36'2715.1
2018-Apr-20 00:43N 33°49' E 127°07'314.6
2018-Apr-20 00:30N 33°50' E 127°10'714.3
2018-Apr-19 23:59N 33°52' E 127°19'55 3.4
2018-Apr-19 07:44N 34°36' E 127°58'416.0
2018-Apr-19 07:31N 34°33' E 127°60'815.8
2018-Apr-19 07:01N 34°27' E 128°06'2 4.9
2018-Apr-19 06:30N 34°25' E 128°08'2 2.0
2018-Apr-19 05:18N 34°25' E 128°05'1 1.9
2018-Apr-19 05:00N 34°25' E 128°04'2 4.3
2018-Apr-19 04:30N 34°26' E 128°02'2011.8
2018-Apr-19 02:50N 34°31' E 128°25'3213.9
2018-Apr-19 00:33N 34°47' E 128°58'114.6
2018-Apr-19 00:30N 34°48' E 128°59'714.9
2018-Apr-19 00:00N 34°52' E 129°06'1215.2
2018-Apr-18 23:12N 35°02' E 129°15'715.3
2018-Apr-18 22:46N 35°08' E 129°19'515.0
2018-Apr-18 22:26N 35°13' E 129°21'15 2.5
2018-Apr-18 16:30N 35°27' E 129°22'3 5.1
2018-Apr-18 15:52N 35°26' E 129°25'614.6
2018-Apr-18 15:29N 35°20' E 129°25'816.8
2018-Apr-18 15:00N 35°13' E 129°20'916.7
2018-Apr-18 14:29N 35°07' E 129°13'612.5
2018-Apr-18 14:00N 35°05' E 129°06'1 2.3
2018-Apr-18 13:30N 35°06' E 129°06'0 0.0
2018-Apr-18 13:00N 35°06' E 129°06'0 0.0
2018-Apr-18 12:30N 35°06' E 129°06'0 0.0
2018-Apr-18 12:00N 35°06' E 129°06'0 0.0
2018-Apr-18 11:30N 35°06' E 129°06'0 0.0
2018-Apr-18 11:00N 35°06' E 129°06'0 0.0
2018-Apr-18 10:30N 35°06' E 129°06'0 0.0
2018-Apr-18 10:00N 35°06' E 129°06'0 0.0
2018-Apr-18 09:21N 35°06' E 129°06'0 0.0
2018-Apr-18 09:00N 35°06' E 129°06'0 0.0
2018-Apr-18 08:30N 35°06' E 129°06'0 0.0
2018-Apr-18 08:00N 35°06' E 129°06'0 0.0
2018-Apr-18 07:30N 35°06' E 129°06'0 0.0
2018-Apr-18 07:00N 35°06' E 129°06'0 0.0
2018-Apr-18 06:30N 35°06' E 129°06'0 0.0
2018-Apr-18 06:00N 35°06' E 129°06'0 0.0
2018-Apr-18 05:30N 35°06' E 129°06'0 0.0
2018-Apr-18 05:00N 35°06' E 129°06'0 0.0
2018-Apr-18 04:30N 35°06' E 129°06'0 0.0
2018-Apr-18 03:54N 35°06' E 129°06'0 0.0
2018-Apr-18 03:27N 35°06' E 129°06'0 0.0
2018-Apr-18 02:57N 35°06' E 129°06'0 0.0
2018-Apr-18 02:30N 35°06' E 129°06'0 0.0
2018-Apr-18 02:00N 35°06' E 129°06'0 0.0
2018-Apr-18 01:30N 35°06' E 129°06'0 0.0
2018-Apr-18 00:57N 35°06' E 129°06'0 0.0
2018-Apr-18 00:30N 35°06' E 129°06'0 0.0
2018-Apr-18 00:00N 35°06' E 129°06'0 0.0
2018-Apr-17 23:30N 35°06' E 129°06'0 0.0
2018-Apr-17 23:00N 35°06' E 129°06'0 0.0
2018-Apr-17 22:30N 35°06' E 129°06'0 0.0
2018-Apr-17 22:00N 35°06' E 129°06'1 1.1
2018-Apr-17 21:30N 35°06' E 129°06'5 9.3
2018-Apr-17 21:00N 35°05' E 129°11'  
2018-Apr-15 09:21N 40°45' E 139°53'613.7
2018-Apr-15 08:56N 40°50' E 139°57'3014.0
2018-Apr-15 06:50N 41°16' E 140°16'412.2
2018-Apr-15 06:30N 41°18' E 140°20'611.4
2018-Apr-15 05:59N 41°22' E 140°26'611.4
2018-Apr-15 05:30N 41°25' E 140°32'612.5
2018-Apr-15 05:00N 41°30' E 140°38'713.7
2018-Apr-15 04:31N 41°34' E 140°45'612.9
2018-Apr-15 04:00N 41°37' E 140°52'611.3
2018-Apr-15 03:30N 41°40' E 140°59'713.6
2018-Apr-15 03:00N 41°43' E 141°07'714.0
2018-Apr-15 02:30N 41°48' E 141°14'  

Dump ship's entire track history